createdAt,value
2023-03-27T00:01:11.740Z,98276.63
2023-03-27T00:03:38.338Z,98305.22
2023-03-27T00:06:06.950Z,98309.56
2023-03-27T00:08:33.550Z,98322.59
2023-03-27T00:11:01.122Z,98333.72
2023-03-27T00:13:28.589Z,98349.41
2023-03-27T00:15:55.988Z,98369.63
2023-03-27T00:18:23.150Z,98372.34
2023-03-27T00:20:49.554Z,98394.81
2023-03-27T00:23:16.295Z,98411.38
2023-03-27T00:25:42.710Z,98415.00
2023-03-27T00:28:09.231Z,98426.53
2023-03-27T00:30:36.062Z,98424.09
2023-03-27T00:33:02.500Z,98431.94
2023-03-27T00:35:29.319Z,98431.84
2023-03-27T00:37:56.002Z,98439.78
2023-03-27T00:40:22.573Z,98452.59
2023-03-27T00:42:50.950Z,98457.06
2023-03-27T00:45:23.671Z,98459.81
2023-03-27T00:47:54.816Z,98461.50
2023-03-27T00:50:23.586Z,98473.69
2023-03-27T00:52:53.978Z,98473.91
2023-03-27T00:55:20.445Z,98470.41
2023-03-27T00:57:50.098Z,98474.94
2023-03-27T01:00:17.091Z,98467.34
2023-03-27T01:02:44.767Z,98461.06
2023-03-27T01:05:14.128Z,98457.78
2023-03-27T01:07:40.661Z,98460.81
2023-03-27T01:10:56.373Z,98465.22
2023-03-27T01:13:41.418Z,98455.16
2023-03-27T01:16:32.388Z,98457.06
2023-03-27T01:19:33.107Z,98467.75
2023-03-27T01:22:23.938Z,98473.25
2023-03-27T01:24:56.457Z,98482.00
2023-03-27T01:27:37.850Z,98483.06
2023-03-27T01:30:09.229Z,98499.63
2023-03-27T01:32:57.388Z,98487.88
2023-03-27T01:35:29.773Z,98481.03
2023-03-27T01:38:28.656Z,98498.47
2023-03-27T01:41:00.620Z,98489.19
2023-03-27T01:43:36.102Z,98495.75
2023-03-27T01:46:11.952Z,98492.19
2023-03-27T01:48:47.882Z,98482.84
2023-03-27T01:51:18.339Z,98493.22
2023-03-27T01:53:53.538Z,98483.81
2023-03-27T01:56:31.496Z,98498.47
2023-03-27T01:59:13.106Z,98496.97
2023-03-27T02:01:42.463Z,98509.97
2023-03-27T02:04:21.067Z,98516.19
2023-03-27T02:06:53.178Z,98517.09
2023-03-27T02:09:24.623Z,98518.25
2023-03-27T02:11:54.743Z,98514.88
2023-03-27T02:14:26.528Z,98520.94
2023-03-27T02:16:55.015Z,98522.75
2023-03-27T02:19:23.406Z,98530.72
2023-03-27T02:21:49.966Z,98535.03
2023-03-27T02:24:17.753Z,98527.31
2023-03-27T02:26:44.938Z,98528.53
2023-03-27T02:29:39.362Z,98527.63
2023-03-27T02:32:25.319Z,98526.75
2023-03-27T02:35:03.374Z,98537.19
2023-03-27T02:37:34.013Z,98533.69
2023-03-27T02:40:17.119Z,98539.81
2023-03-27T02:42:55.973Z,98540.56
2023-03-27T02:45:34.635Z,98540.56
2023-03-27T02:48:09.638Z,98542.34
2023-03-27T02:50:42.540Z,98548.69
2023-03-27T02:53:08.921Z,98549.47
2023-03-27T02:55:37.602Z,98542.88
2023-03-27T02:58:06.868Z,98549.91
2023-03-27T03:00:37.433Z,98552.31
2023-03-27T03:03:07.266Z,98549.78
2023-03-27T03:05:33.817Z,98557.81
2023-03-27T03:08:00.430Z,98549.22
2023-03-27T03:10:26.816Z,98556.09
2023-03-27T03:12:53.158Z,98560.94
2023-03-27T03:15:19.850Z,98560.13
2023-03-27T03:17:46.641Z,98570.56
2023-03-27T03:20:13.579Z,98567.41
2023-03-27T03:22:42.042Z,98567.53
2023-03-27T03:25:10.815Z,98562.34
2023-03-27T03:27:37.708Z,98561.25
2023-03-27T03:30:04.850Z,98576.00
2023-03-27T03:32:31.243Z,98561.00
2023-03-27T03:34:57.875Z,98571.41
2023-03-27T03:37:28.504Z,98579.81
2023-03-27T03:39:55.903Z,98560.75
2023-03-27T03:42:24.129Z,98587.34
2023-03-27T03:44:52.298Z,98588.97
2023-03-27T03:47:18.661Z,98596.94
2023-03-27T03:49:45.422Z,98602.06
2023-03-27T03:52:12.065Z,98616.94
2023-03-27T03:54:40.109Z,98608.38
2023-03-27T03:57:06.487Z,98611.94
2023-03-27T03:59:32.953Z,98616.34
2023-03-27T04:02:00.498Z,98621.63
2023-03-27T04:04:27.304Z,98620.66
2023-03-27T04:06:58.069Z,98624.03
2023-03-27T04:09:25.326Z,98625.00
2023-03-27T04:11:51.769Z,98642.34
2023-03-27T04:14:18.155Z,98645.81
2023-03-27T04:16:44.727Z,98644.38
2023-03-27T04:19:11.115Z,98642.09
2023-03-27T04:21:37.528Z,98638.69
2023-03-27T04:24:04.076Z,98642.25
2023-03-27T04:26:30.460Z,98641.38
2023-03-27T04:28:56.844Z,98637.13
2023-03-27T04:31:23.259Z,98626.91
2023-03-27T04:33:52.275Z,98635.41
2023-03-27T04:36:19.108Z,98639.00
2023-03-27T04:38:45.774Z,98641.81
2023-03-27T04:41:12.214Z,98628.97
2023-03-27T04:43:41.588Z,98623.66
2023-03-27T04:46:08.314Z,98611.53
2023-03-27T04:48:35.102Z,98604.69
2023-03-27T04:51:01.484Z,98602.88
2023-03-27T04:53:30.451Z,98589.13
2023-03-27T04:55:57.219Z,98586.50
2023-03-27T04:58:26.527Z,98579.47
2023-03-27T05:00:56.602Z,98582.28
2023-03-27T05:03:23.999Z,98560.69
2023-03-27T05:05:50.606Z,98542.63
2023-03-27T05:08:17.709Z,98533.25
2023-03-27T05:10:45.002Z,98532.22
2023-03-27T05:13:11.592Z,98525.25
2023-03-27T05:15:39.215Z,98521.81
2023-03-27T05:18:07.250Z,98521.03
2023-03-27T05:20:34.333Z,98505.34
2023-03-27T05:23:00.789Z,98499.41
2023-03-27T05:25:27.443Z,98504.56
2023-03-27T05:27:54.254Z,98502.06
2023-03-27T05:30:22.260Z,98497.78
2023-03-27T05:32:49.379Z,98484.75
2023-03-27T05:35:18.211Z,98483.97
2023-03-27T05:37:47.543Z,98471.69
2023-03-27T05:40:15.512Z,98454.72
2023-03-27T05:42:45.851Z,98440.13
2023-03-27T05:45:12.920Z,98425.53
2023-03-27T05:47:50.652Z,98403.91
2023-03-27T05:50:18.014Z,98415.03
2023-03-27T05:52:44.467Z,98410.47
2023-03-27T05:55:14.676Z,98405.91
2023-03-27T05:57:41.484Z,98404.97
2023-03-27T06:00:16.392Z,98412.22
2023-03-27T06:02:43.529Z,98407.41
2023-03-27T06:05:13.239Z,98396.88
2023-03-27T06:07:42.407Z,98396.66
2023-03-27T06:10:13.781Z,98396.50
2023-03-27T06:12:41.557Z,98396.25
2023-03-27T06:15:09.226Z,98399.63
2023-03-27T06:17:36.424Z,98414.41
2023-03-27T06:20:10.512Z,98394.44
2023-03-27T06:22:45.220Z,98397.09
2023-03-27T06:25:11.723Z,98404.31
2023-03-27T06:27:38.126Z,98396.44
2023-03-27T06:30:05.147Z,98392.00
2023-03-27T06:32:31.758Z,98396.25
2023-03-27T06:34:58.104Z,98403.22
2023-03-27T06:37:25.049Z,98399.09
2023-03-27T06:39:52.079Z,98394.56
2023-03-27T06:42:18.503Z,98394.44
2023-03-27T06:44:44.881Z,98395.66
2023-03-27T06:47:11.342Z,98367.19
2023-03-27T06:49:37.743Z,98357.56
2023-03-27T06:52:04.469Z,98345.44
2023-03-27T06:54:31.130Z,98319.47
2023-03-27T06:57:00.649Z,98319.47
2023-03-27T06:59:27.488Z,98328.75
2023-03-27T07:01:54.008Z,98321.66
2023-03-27T07:04:21.247Z,98346.34
2023-03-27T07:06:48.994Z,98356.34
2023-03-27T07:09:15.708Z,98398.75
2023-03-27T07:11:42.459Z,98427.03
2023-03-27T07:14:09.006Z,98433.91
2023-03-27T07:16:35.433Z,98453.59
2023-03-27T07:19:02.593Z,98475.13
2023-03-27T07:21:29.520Z,98503.53
2023-03-27T07:23:56.125Z,98520.66
2023-03-27T07:26:22.479Z,98543.00
2023-03-27T07:28:50.604Z,98561.72
2023-03-27T07:33:46.459Z,98574.88
2023-03-27T07:36:14.155Z,98600.13
2023-03-27T07:38:42.005Z,98634.41
2023-03-27T07:41:09.393Z,98660.03
2023-03-27T07:43:35.840Z,98694.50
2023-03-27T07:46:03.275Z,98725.56
2023-03-27T07:48:30.436Z,98733.97
2023-03-27T07:51:10.822Z,98743.31
2023-03-27T07:53:41.425Z,98754.44
2023-03-27T07:56:08.712Z,98761.38
2023-03-27T07:58:35.181Z,98756.88
2023-03-27T08:01:02.495Z,98761.03
2023-03-27T08:03:30.136Z,98770.53
2023-03-27T08:05:58.796Z,98768.69
2023-03-27T08:08:25.804Z,98774.88
2023-03-27T08:10:54.634Z,98775.03
2023-03-27T08:13:21.014Z,98771.66
2023-03-27T08:15:47.870Z,98761.81
2023-03-27T08:18:14.443Z,98767.63
2023-03-27T08:20:40.791Z,98770.09
2023-03-27T08:23:07.165Z,98776.22
2023-03-27T08:25:34.506Z,98804.97
2023-03-27T08:28:01.920Z,98812.75
2023-03-27T08:30:29.085Z,98814.28
2023-03-27T08:32:55.920Z,98803.75
2023-03-27T08:35:22.459Z,98807.84
2023-03-27T08:37:48.841Z,98815.06
2023-03-27T08:40:26.390Z,98814.56
2023-03-27T08:42:54.254Z,98831.44
2023-03-27T08:45:22.945Z,98869.59
2023-03-27T08:47:56.431Z,98880.75
2023-03-27T08:50:42.735Z,98885.03
2023-03-27T08:53:39.166Z,98897.91
2023-03-27T08:56:06.996Z,98919.09
2023-03-27T08:58:34.483Z,98938.22
2023-03-27T09:01:02.995Z,98961.75
2023-03-27T09:03:35.773Z,98962.53
2023-03-27T09:06:06.376Z,98986.03
2023-03-27T09:08:42.129Z,98987.34
2023-03-27T09:11:22.228Z,98995.53
2023-03-27T09:13:49.933Z,99016.44
2023-03-27T09:16:18.958Z,99019.84
2023-03-27T09:19:31.635Z,99040.63
2023-03-27T09:22:02.668Z,99041.47
2023-03-27T09:24:34.457Z,99038.06
2023-03-27T09:27:13.488Z,99023.06
2023-03-27T09:29:39.913Z,99030.31
2023-03-27T09:32:07.439Z,99047.16
2023-03-27T09:34:33.899Z,99045.72
2023-03-27T09:37:00.461Z,99033.75
2023-03-27T09:39:32.611Z,99035.03
2023-03-27T09:42:09.195Z,99054.69
2023-03-27T09:44:41.217Z,99063.94
2023-03-27T09:47:16.047Z,99075.09
2023-03-27T09:49:47.919Z,99083.81
2023-03-27T09:52:37.022Z,99114.13
2023-03-27T09:55:04.660Z,99121.81
2023-03-27T09:57:33.857Z,99105.72
2023-03-27T10:00:09.320Z,99121.09
2023-03-27T10:02:36.557Z,99150.81
2023-03-27T10:05:12.083Z,99134.50
2023-03-27T10:07:42.056Z,99143.63
2023-03-27T10:10:17.489Z,99132.22
2023-03-27T10:12:44.328Z,99131.25
2023-03-27T10:15:36.943Z,99131.41
2023-03-27T10:18:08.275Z,99143.94
2023-03-27T10:20:34.697Z,99173.88
2023-03-27T10:23:02.642Z,99140.28
2023-03-27T10:25:39.949Z,99052.88
2023-03-27T10:28:15.950Z,98933.09
2023-03-27T10:30:42.329Z,98611.59
2023-03-27T10:33:09.157Z,98223.56
2023-03-27T10:35:53.792Z,97827.66
2023-03-27T10:38:20.548Z,97600.56
2023-03-27T10:40:50.440Z,97471.59
2023-03-27T10:43:20.856Z,97415.72
2023-03-27T10:45:56.306Z,97352.94
2023-03-27T10:48:47.890Z,97413.63
2023-03-27T10:51:45.406Z,97531.84
2023-03-27T10:54:34.719Z,97592.53
2023-03-27T10:57:10.623Z,97703.16
2023-03-27T10:59:42.338Z,97689.75
2023-03-27T11:02:16.585Z,97661.31
2023-03-27T11:04:51.753Z,97631.53
2023-03-27T11:07:25.665Z,97460.53
2023-03-27T11:09:58.211Z,97595.97
2023-03-27T11:12:24.844Z,97567.72
2023-03-27T11:14:56.665Z,97928.28
2023-03-27T11:17:33.341Z,97968.81
2023-03-27T11:20:07.084Z,98064.84
2023-03-27T11:22:44.883Z,98045.38
2023-03-27T11:25:20.974Z,98011.41
2023-03-27T11:28:10.739Z,98045.25
2023-03-27T11:30:56.026Z,98139.41
2023-03-27T11:33:38.096Z,98227.53
2023-03-27T11:36:32.952Z,98267.44
2023-03-27T11:39:24.145Z,98122.31
2023-03-27T11:41:56.474Z,97824.13
2023-03-27T11:44:23.951Z,97623.38
2023-03-27T11:46:57.274Z,97386.47
2023-03-27T11:49:36.156Z,97230.56
2023-03-27T11:52:14.718Z,97036.59
2023-03-27T11:54:48.309Z,96835.84
2023-03-27T11:57:25.750Z,96593.47
2023-03-27T12:00:16.292Z,96506.66
2023-03-27T12:03:10.343Z,96612.63
2023-03-27T12:06:14.125Z,96906.66
2023-03-27T12:08:59.781Z,97212.41
2023-03-27T12:11:26.128Z,97487.88
2023-03-27T12:14:17.522Z,97537.47
2023-03-27T12:16:50.617Z,97873.94
2023-03-27T12:19:39.691Z,98197.94
2023-03-27T12:22:22.537Z,98269.97
2023-03-27T12:25:19.977Z,98420.09
2023-03-27T12:27:49.545Z,98619.72
2023-03-27T12:30:24.082Z,98647.91
2023-03-27T12:33:06.162Z,98685.28
2023-03-27T12:35:37.983Z,98781.00
2023-03-27T12:38:07.242Z,98817.72
2023-03-27T12:40:40.073Z,98998.88
2023-03-27T12:43:21.582Z,99017.88
2023-03-27T12:46:23.836Z,99073.00
2023-03-27T12:48:54.498Z,99097.94
2023-03-27T12:51:44.003Z,99100.59
2023-03-27T12:54:19.362Z,99147.84
2023-03-27T12:56:59.126Z,99134.47
2023-03-27T12:59:27.686Z,99119.78
2023-03-27T13:02:03.399Z,98887.28
2023-03-27T13:05:10.709Z,98483.72
2023-03-27T13:08:08.164Z,98173.59
2023-03-27T13:10:56.608Z,97913.50
2023-03-27T13:13:44.001Z,97728.53
2023-03-27T13:16:47.890Z,97595.63
2023-03-27T13:19:28.618Z,97416.47
2023-03-27T13:22:04.080Z,97254.72
2023-03-27T13:24:45.653Z,97157.50
2023-03-27T13:27:24.201Z,97071.97
2023-03-27T13:29:51.357Z,97034.44
2023-03-27T13:32:38.140Z,97065.28
2023-03-27T13:35:21.024Z,97103.41
2023-03-27T13:37:50.730Z,97101.03
2023-03-27T13:40:24.660Z,97001.97
2023-03-27T13:42:52.482Z,96910.13
2023-03-27T13:45:38.861Z,96819.91
2023-03-27T13:48:50.216Z,96785.69
2023-03-27T13:51:22.259Z,96767.47
2023-03-27T13:54:16.474Z,96765.66
2023-03-27T13:57:05.416Z,96843.16
2023-03-27T13:59:51.045Z,96995.41
2023-03-27T14:02:46.929Z,97318.84
2023-03-27T14:05:22.628Z,97592.78
2023-03-27T14:08:00.890Z,97983.94
2023-03-27T14:10:51.703Z,98135.69
2023-03-27T14:13:28.772Z,98378.94
2023-03-27T14:16:22.409Z,98505.66
2023-03-27T14:19:46.601Z,98605.75
2023-03-27T14:22:26.236Z,98770.84
2023-03-27T14:25:02.570Z,98912.13
2023-03-27T14:27:29.043Z,98988.47
2023-03-27T14:30:29.758Z,98840.94
2023-03-27T14:32:58.511Z,98780.75
2023-03-27T14:35:39.234Z,98487.97
2023-03-27T14:38:16.658Z,98276.22
2023-03-27T14:40:47.430Z,98143.59
2023-03-27T14:43:14.322Z,97978.69
2023-03-27T14:45:40.743Z,97812.63
2023-03-27T14:48:09.392Z,97689.28
2023-03-27T14:50:36.191Z,97674.56
2023-03-27T14:53:02.868Z,97618.16
2023-03-27T14:55:32.281Z,97568.28
2023-03-27T14:58:00.595Z,97902.47
2023-03-27T15:00:27.074Z,98056.34
2023-03-27T15:02:53.569Z,98105.25
2023-03-27T15:05:22.447Z,98304.75
2023-03-27T15:07:49.229Z,98384.44
2023-03-27T15:10:22.320Z,98424.00
2023-03-27T15:12:48.844Z,98499.13
2023-03-27T15:15:21.372Z,98428.31
2023-03-27T15:17:50.002Z,98576.28
2023-03-27T15:20:17.796Z,98835.50
2023-03-27T15:22:46.076Z,98972.03
2023-03-27T15:25:17.797Z,98938.31
2023-03-27T15:27:52.661Z,98927.09
2023-03-27T15:30:25.918Z,98900.38
2023-03-27T15:32:53.183Z,98692.50
2023-03-27T15:35:27.861Z,98767.38
2023-03-27T15:37:54.307Z,98792.97
2023-03-27T15:40:33.117Z,98673.53
2023-03-27T15:43:02.296Z,98363.56
2023-03-27T15:45:41.967Z,98050.91
2023-03-27T15:48:17.639Z,97796.28
2023-03-27T15:50:56.284Z,97802.19
2023-03-27T15:53:37.079Z,98006.41
2023-03-27T15:56:05.949Z,98143.91
2023-03-27T15:58:40.102Z,98191.13
2023-03-27T16:01:18.268Z,98140.00
2023-03-27T16:03:47.250Z,98450.53
2023-03-27T16:06:21.866Z,98404.63
2023-03-27T16:08:48.929Z,98492.03
2023-03-27T16:11:31.898Z,98614.81
2023-03-27T16:13:59.065Z,98612.69
2023-03-27T16:16:27.552Z,98764.91
2023-03-27T16:18:54.029Z,98727.97
2023-03-27T16:21:21.085Z,98738.28
2023-03-27T16:23:47.500Z,98825.22
2023-03-27T16:26:16.189Z,98755.53
2023-03-27T16:28:42.616Z,98861.22
2023-03-27T16:31:13.110Z,98932.84
2023-03-27T16:33:42.817Z,98967.84
2023-03-27T16:36:12.724Z,98981.13
2023-03-27T16:38:40.793Z,99097.13
2023-03-27T16:41:11.248Z,99116.44
2023-03-27T16:43:37.626Z,99033.66
2023-03-27T16:46:04.221Z,99036.44
2023-03-27T16:48:30.900Z,98996.66
2023-03-27T16:50:57.289Z,98989.66
2023-03-27T16:53:23.660Z,99026.59
2023-03-27T16:55:51.179Z,99070.59
2023-03-27T16:58:17.525Z,99090.56
2023-03-27T17:00:43.941Z,99043.09
2023-03-27T17:03:11.362Z,99010.91
2023-03-27T17:05:37.773Z,99028.22
2023-03-27T17:08:06.736Z,99003.97
2023-03-27T17:10:33.833Z,99053.38
2023-03-27T17:13:00.376Z,98991.88
2023-03-27T17:15:26.737Z,98990.00
2023-03-27T17:17:53.308Z,98983.47
2023-03-27T17:20:19.753Z,98973.34
2023-03-27T17:22:46.606Z,99027.94
2023-03-27T17:25:12.970Z,99028.75
2023-03-27T17:27:39.362Z,99044.44
2023-03-27T17:30:06.710Z,99048.69
2023-03-27T17:32:33.199Z,99062.47
2023-03-27T17:34:59.560Z,99077.94
2023-03-27T17:37:27.128Z,99095.31
2023-03-27T17:39:53.498Z,99067.91
2023-03-27T17:42:19.862Z,99134.53
2023-03-27T17:44:46.286Z,99133.00
2023-03-27T17:47:13.354Z,99138.25
2023-03-27T17:49:40.814Z,99223.84
2023-03-27T17:52:11.793Z,99278.31
2023-03-27T17:54:38.310Z,99313.88
2023-03-27T17:57:04.699Z,99314.66
2023-03-27T17:59:31.144Z,99328.59
2023-03-27T18:01:58.099Z,99365.81
2023-03-27T18:04:24.789Z,99368.50
2023-03-27T18:06:51.656Z,99378.84
2023-03-27T18:09:18.170Z,99379.84
2023-03-27T18:11:44.513Z,99347.13
2023-03-27T18:14:10.914Z,99394.69
2023-03-27T18:16:37.323Z,99325.59
2023-03-27T18:19:03.739Z,99319.78
2023-03-27T18:21:30.166Z,99351.72
2023-03-27T18:23:59.504Z,99376.03
2023-03-27T18:26:26.029Z,99360.47
2023-03-27T18:28:52.643Z,99377.88
2023-03-27T18:31:19.130Z,99389.88
2023-03-27T18:33:45.628Z,99383.03
2023-03-27T18:36:12.267Z,99395.25
2023-03-27T18:38:40.099Z,99403.91
2023-03-27T18:41:07.788Z,99401.28
2023-03-27T18:43:34.199Z,99405.78
2023-03-27T18:46:05.111Z,99375.56
2023-03-27T18:48:31.633Z,99381.69
2023-03-27T18:50:59.711Z,99374.78
2023-03-27T18:53:26.218Z,99398.13
2023-03-27T18:55:52.875Z,99416.28
2023-03-27T18:58:19.498Z,99391.25
2023-03-27T19:00:46.031Z,99387.06
2023-03-27T19:03:14.512Z,99394.00
2023-03-27T19:05:41.056Z,99371.59
2023-03-27T19:08:07.837Z,99354.44
2023-03-27T19:10:35.081Z,99326.84
2023-03-27T19:13:01.872Z,99285.59
2023-03-27T19:15:28.384Z,99264.91
2023-03-27T19:17:54.796Z,99210.59
2023-03-27T19:20:21.512Z,99102.84
2023-03-27T19:22:47.929Z,99087.41
2023-03-27T19:25:14.407Z,99044.50
2023-03-27T19:27:40.741Z,99024.00
2023-03-27T19:30:07.781Z,98942.13
2023-03-27T19:32:34.204Z,98897.22
2023-03-27T19:35:00.695Z,98878.22
2023-03-27T19:37:27.097Z,98857.66
2023-03-27T19:39:53.506Z,98829.19
2023-03-27T19:42:19.887Z,98780.00
2023-03-27T19:44:46.335Z,98784.25
2023-03-27T19:47:12.747Z,98760.94
2023-03-27T19:49:39.910Z,98761.84
2023-03-27T19:52:07.464Z,98732.59
2023-03-27T19:54:33.844Z,98709.66
2023-03-27T19:57:00.424Z,98665.72
2023-03-27T19:59:30.818Z,98605.66
2023-03-27T20:01:58.111Z,98590.16
2023-03-27T20:04:24.654Z,98566.78
2023-03-27T20:06:51.439Z,98546.13
2023-03-27T20:09:18.825Z,98552.91
2023-03-27T20:11:46.325Z,98575.41
2023-03-27T20:14:12.962Z,98602.97
2023-03-27T20:16:39.303Z,98637.47
2023-03-27T20:19:06.295Z,98646.97
2023-03-27T20:21:35.061Z,98662.50
2023-03-27T20:24:01.768Z,98699.56
2023-03-27T20:26:32.349Z,98765.16
2023-03-27T20:28:58.820Z,98796.91
2023-03-27T20:31:25.188Z,98840.84
2023-03-27T20:33:53.155Z,98853.88
2023-03-27T20:36:22.883Z,98900.38
2023-03-27T20:38:52.660Z,98889.09
2023-03-27T20:41:19.637Z,98922.78
2023-03-27T20:43:47.304Z,98889.81
2023-03-27T20:46:16.629Z,98911.53
2023-03-27T20:48:44.955Z,98938.34
2023-03-27T20:51:23.995Z,98955.66
2023-03-27T20:53:55.524Z,98957.19
2023-03-27T20:56:22.186Z,98973.66
2023-03-27T20:58:48.675Z,98994.28
2023-03-27T21:01:15.183Z,98956.22
2023-03-27T21:03:46.341Z,98974.34
2023-03-27T21:06:14.822Z,98969.13
2023-03-27T21:08:44.048Z,98989.97
2023-03-27T21:11:10.485Z,98987.31
2023-03-27T21:13:36.935Z,98939.03
2023-03-27T21:16:06.409Z,98941.69
2023-03-27T21:18:33.147Z,98937.34
2023-03-27T21:20:59.570Z,98923.50
2023-03-27T21:23:26.001Z,98912.28
2023-03-27T21:25:53.197Z,98910.53
2023-03-27T21:28:19.545Z,98917.44
2023-03-27T21:30:48.601Z,98923.47
2023-03-27T21:33:16.139Z,98930.38
2023-03-27T21:35:45.991Z,98939.78
2023-03-27T21:38:13.501Z,98940.66
2023-03-27T21:40:40.246Z,98953.56
2023-03-27T21:43:08.276Z,98956.16
2023-03-27T21:45:35.638Z,98926.81
2023-03-27T21:48:02.386Z,98929.44
2023-03-27T21:50:28.853Z,98938.88
2023-03-27T21:52:55.665Z,98922.50
2023-03-27T21:55:22.023Z,98907.06
2023-03-27T21:57:48.665Z,98851.91
2023-03-27T22:00:15.759Z,98846.63
2023-03-27T22:02:42.676Z,98836.28
2023-03-27T22:05:10.573Z,98889.72
2023-03-27T22:07:36.965Z,98934.53
2023-03-27T22:10:06.266Z,98919.75
2023-03-27T22:12:36.615Z,98922.19
2023-03-27T22:15:03.164Z,98923.06
2023-03-27T22:17:29.838Z,98954.81
2023-03-27T22:19:56.757Z,98957.41
2023-03-27T22:22:23.557Z,98956.50
2023-03-27T22:24:49.900Z,98972.03
2023-03-27T22:27:16.466Z,98955.75
2023-03-27T22:29:42.836Z,98956.56
2023-03-27T22:32:09.192Z,98952.22
2023-03-27T22:34:35.656Z,98975.63
2023-03-27T22:37:02.618Z,98954.88
2023-03-27T22:39:29.136Z,98945.41
2023-03-27T22:41:55.673Z,98924.88
2023-03-27T22:44:22.027Z,98927.56
2023-03-27T22:46:48.505Z,98891.28
2023-03-27T22:49:15.178Z,98863.78
2023-03-27T22:51:41.508Z,98760.53
2023-03-27T22:54:08.226Z,98597.13
2023-03-27T22:56:34.915Z,98400.00
2023-03-27T22:59:01.304Z,98232.31
2023-03-27T23:01:27.742Z,98112.63
2023-03-27T23:03:54.454Z,98027.41
2023-03-27T23:06:22.189Z,97951.44
2023-03-27T23:08:49.261Z,97925.72
2023-03-27T23:11:15.976Z,97908.50
2023-03-27T23:13:42.357Z,97878.53
2023-03-27T23:16:09.211Z,97868.34
2023-03-27T23:18:36.189Z,97871.25
2023-03-27T23:21:04.463Z,97858.97
2023-03-27T23:23:31.583Z,97872.56
2023-03-27T23:25:58.748Z,97905.38
2023-03-27T23:28:25.682Z,97931.84
2023-03-27T23:30:53.637Z,97954.91
2023-03-27T23:33:20.258Z,97986.75
2023-03-27T23:35:46.946Z,98024.41
2023-03-27T23:38:13.305Z,98006.38
2023-03-27T23:40:39.691Z,97963.34
2023-03-27T23:43:06.064Z,97894.44
2023-03-27T23:45:32.441Z,97860.09
2023-03-27T23:47:58.949Z,97804.88
2023-03-27T23:50:25.729Z,97742.56
2023-03-27T23:52:52.064Z,97664.41
2023-03-27T23:55:18.621Z,97605.84
2023-03-27T23:57:44.958Z,97547.22
